Airfield :
LOGIN :

Register | Disclaimer

   EN    FR    IT 

 










Legend :    VFR   Marginal VFR   IFR   Intensive IFR   Very Intensive IFR
Visi :
Ceiling :
>= 8 km
>= 3000ft
5 to 8 km
1000 to 3000 ft
1500m to 5 km
500 to 1000 ft
800 to 1500m
200 to 500 ft
< 800m
< 200 ft
Symbols :   Thunderstorms  Fog  Heavy snow  Heavy precipitations  Wind > 20 kt
SIGMETs :     Misc.  Thunderstorms  Icing  Turbulence  Mountain Waves  Volcanic Ashes






- Airport Elevation : 56 ft
- IATA code : BZR


LFMU - Beziers / Vias

CURRENT METAR :
  • 021800Z AUTO 32014KT CAVOK 27/15 Q1015

EXPIRED METARs :
  • 021730Z AUTO 31016KT CAVOK 28/15 Q1014
  • 021700Z AUTO 33017KT CAVOK 28/15 Q1014 TEMPO 32020G30KT
  • 021630Z AUTO 32015KT CAVOK 28/14 Q1014 TEMPO 32020G30KT
  • 021600Z AUTO 33016KT CAVOK 29/15 Q1013 TEMPO 32020G30KT
  • 021530Z AUTO 33014KT CAVOK 29/15 Q1013 TEMPO 32020G30KT
  • 021500Z AUTO 31014KT CAVOK 31/15 Q1013 TEMPO 32020G30KT

TAF TAF LFMU
Valid from the 02 at 15:00 until the 03 at 15:00 UTC


021400Z 0215/0315 32012KT CAVOK
TEMPO 0216/0221 32020G30KT
BECMG 0308/0309 33020G30KT
ATIS : +33 4 67 90 88 88



MET'MAP, your aeronautical weather chart ! - Copyright ORBIFLY December 2007 - Disclaimer

ORBIFLY MET'MAP TEAM :

Programming & Development : Alexandra Zaïnal
Concept & original design : Baudouin d'Aumeries
Assistance for programming : Marc-Olivier Méhu
Technical & hardware support : Manuel Goepfert

Contact : metmap@orbifly.com




SOURCES & CREDITS :

   NOAA